Time;durP1;ratioP1;P1;durP2;ratioP2;P2;SDS_P1;SDS_P2;PMS_P1;PMS_P2;Temp;Humidity;BMP_temperature;BMP_pressure;BME280_temperature;BME280_humidity;BME280_pressure;Samples;Min_cycle;Max_cycle;Signal;HPM_P1;HPM_P2
2022/10/06 00:02:11;;;;;;;0.50;0.47;;;14.40;99.90;;;;;;5075600;28;20454;-83
2022/10/06 00:04:38;;;;;;;0.60;0.60;;;14.40;99.90;;;;;;5074923;28;20485;-83
2022/10/06 00:07:04;;;;;;;0.43;0.43;;;14.40;99.90;;;;;;5075222;28;20898;-83
2022/10/06 00:09:31;;;;;;;4.03;0.60;;;14.40;99.90;;;;;;5075468;28;20453;-83
2022/10/06 00:11:59;;;;;;;0.80;0.60;;;14.40;99.90;;;;;;5075432;28;20453;-83
2022/10/06 00:14:26;;;;;;;1.30;0.90;;;14.40;99.90;;;;;;5074542;28;20877;-82
2022/10/06 00:16:53;;;;;;;0.70;0.70;;;14.40;99.90;;;;;;5075394;28;20442;-82
2022/10/06 00:19:20;;;;;;;0.40;0.30;;;14.50;99.90;;;;;;5074993;28;20936;-82
2022/10/06 00:21:46;;;;;;;1.33;1.23;;;14.50;99.90;;;;;;5075237;28;20457;-83
2022/10/06 00:24:13;;;;;;;0.80;0.60;;;14.50;99.90;;;;;;5075098;28;20461;-83
2022/10/06 00:26:40;;;;;;;1.33;0.60;;;14.50;99.90;;;;;;5075147;28;20473;-83
2022/10/06 00:29:08;;;;;;;0.70;0.70;;;14.50;99.90;;;;;;5074836;28;20941;-82
2022/10/06 00:31:35;;;;;;;0.40;0.40;;;14.50;99.90;;;;;;5075015;28;20544;-82
2022/10/06 00:34:02;;;;;;;2.10;0.60;;;14.60;99.90;;;;;;5074630;28;20465;-82
2022/10/06 00:36:28;;;;;;;0.90;0.60;;;14.60;99.90;;;;;;5074957;28;20441;-82
2022/10/06 00:38:55;;;;;;;1.70;0.60;;;14.50;99.90;;;;;;5074624;28;20815;-83
2022/10/06 00:41:22;;;;;;;0.73;0.73;;;14.50;99.90;;;;;;5074889;28;20445;-82
2022/10/06 00:43:51;;;;;;;0.80;0.43;;;14.50;99.90;;;;;;5075308;28;20472;-82
2022/10/06 00:46:32;;;;;;;0.70;0.60;;;14.50;99.90;;;;;;5074690;28;20485;-83
2022/10/06 00:49:04;;;;;;;0.60;0.60;;;14.50;99.90;;;;;;5074735;28;20442;-82
2022/10/06 00:51:32;;;;;;;0.70;0.50;;;14.50;99.90;;;;;;5074717;28;20437;-83
2022/10/06 00:53:59;;;;;;;0.50;0.50;;;14.40;99.90;;;;;;5074179;28;20992;-83
2022/10/06 00:56:26;;;;;;;0.70;0.70;;;14.40;99.90;;;;;;5074561;28;20452;-82
2022/10/06 00:58:53;;;;;;;0.97;0.60;;;14.40;99.90;;;;;;5074539;28;20449;-83
2022/10/06 01:01:20;;;;;;;0.60;0.60;;;14.40;99.90;;;;;;5074124;28;20972;-83
2022/10/06 01:03:53;;;;;;;0.50;0.50;;;14.40;99.90;;;;;;5073964;28;20861;-82
2022/10/06 01:06:20;;;;;;;0.70;0.70;;;14.40;99.90;;;;;;5074330;28;20473;-83
2022/10/06 01:08:47;;;;;;;0.57;0.57;;;14.40;99.90;;;;;;5074294;28;20450;-83
2022/10/06 01:11:14;;;;;;;0.90;0.50;;;14.40;99.90;;;;;;5074277;28;20457;-83
2022/10/06 01:13:43;;;;;;;0.60;0.60;;;14.40;99.90;;;;;;5074170;28;20445;-82
2022/10/06 01:16:16;;;;;;;0.60;0.60;;;14.40;99.90;;;;;;5074120;28;20444;-83
2022/10/06 01:18:44;;;;;;;1.07;0.50;;;14.40;99.90;;;;;;5074036;28;20842;-82
2022/10/06 01:21:18;;;;;;;0.80;0.60;;;14.30;99.90;;;;;;5074068;28;20433;-82
2022/10/06 01:23:46;;;;;;;0.67;0.50;;;14.30;99.90;;;;;;5073998;28;20492;-82
2022/10/06 01:26:15;;;;;;;1.97;1.07;;;14.30;99.90;;;;;;5073399;28;20481;-82
2022/10/06 01:28:42;;;;;;;2.10;1.03;;;14.30;99.90;;;;;;5073909;28;20469;-83
2022/10/06 01:31:09;;;;;;;0.70;0.47;;;14.30;99.90;;;;;;5073858;28;20449;-82
2022/10/06 01:33:36;;;;;;;0.50;0.50;;;14.30;99.90;;;;;;5073762;28;20454;-83
2022/10/06 01:36:04;;;;;;;0.50;0.40;;;14.30;99.90;;;;;;5073832;28;20448;-82
2022/10/06 01:38:30;;;;;;;0.97;0.70;;;14.30;99.90;;;;;;5073731;28;20454;-82
2022/10/06 01:40:59;;;;;;;0.50;0.50;;;14.30;99.90;;;;;;5073728;28;20446;-82
2022/10/06 01:43:26;;;;;;;0.50;0.50;;;14.30;99.90;;;;;;5073650;28;20445;-82
2022/10/06 01:45:54;;;;;;;0.77;0.57;;;14.30;99.90;;;;;;5073598;28;20477;-83
2022/10/06 01:48:22;;;;;;;1.67;0.80;;;14.30;99.90;;;;;;5073652;28;20450;-82
2022/10/06 01:50:49;;;;;;;0.40;0.40;;;14.30;99.90;;;;;;5073616;28;20556;-82
2022/10/06 01:53:15;;;;;;;0.63;0.63;;;14.30;99.90;;;;;;5073267;28;20445;-83
2022/10/06 01:55:42;;;;;;;1.17;0.50;;;14.30;99.90;;;;;;5073464;28;20461;-82
2022/10/06 01:58:11;;;;;;;0.97;0.77;;;14.30;99.90;;;;;;5073374;28;20460;-83
2022/10/06 02:00:38;;;;;;;1.83;0.60;;;14.30;99.90;;;;;;5073174;28;20450;-82
2022/10/06 02:03:06;;;;;;;4.03;0.53;;;14.30;99.90;;;;;;5073231;28;20445;-82
2022/10/06 02:05:33;;;;;;;0.43;0.40;;;14.20;99.90;;;;;;5073201;28;20491;-83
2022/10/06 02:08:01;;;;;;;0.70;0.60;;;14.20;99.90;;;;;;5073427;28;20515;-83
2022/10/06 02:10:28;;;;;;;0.57;0.50;;;14.30;99.90;;;;;;5073425;28;20460;-83
2022/10/06 02:12:56;;;;;;;1.03;0.53;;;14.30;99.90;;;;;;5073369;28;20448;-83
2022/10/06 02:15:25;;;;;;;0.60;0.60;;;14.30;99.90;;;;;;5072933;28;20564;-83
2022/10/06 02:17:52;;;;;;;1.17;0.90;;;14.20;99.90;;;;;;5073002;28;20453;-82
2022/10/06 02:20:19;;;;;;;0.80;0.80;;;14.20;99.90;;;;;;5072962;28;20449;-82
2022/10/06 02:22:46;;;;;;;1.50;0.60;;;14.20;99.90;;;;;;5072948;28;20456;-83
2022/10/06 02:25:13;;;;;;;0.60;0.40;;;14.20;99.90;;;;;;5073137;28;20492;-83
2022/10/06 02:27:40;;;;;;;1.00;0.50;;;14.20;99.90;;;;;;5073228;28;20963;-83
2022/10/06 02:30:08;;;;;;;0.50;0.50;;;14.20;99.90;;;;;;5073241;28;20468;-83
2022/10/06 02:32:37;;;;;;;0.87;0.50;;;14.10;99.90;;;;;;5072871;28;20949;-83
2022/10/06 02:35:05;;;;;;;1.13;0.60;;;14.10;99.90;;;;;;5072878;28;20460;-83
2022/10/06 02:37:32;;;;;;;0.70;0.40;;;14.10;99.90;;;;;;5074523;28;20812;-82
2022/10/06 02:39:59;;;;;;;0.50;0.40;;;14.10;99.90;;;;;;5076902;28;20858;-82
2022/10/06 02:42:26;;;;;;;1.30;0.57;;;14.00;99.90;;;;;;5076840;28;20441;-83
2022/10/06 02:44:52;;;;;;;1.37;0.50;;;14.00;99.90;;;;;;5076670;28;21005;-82
2022/10/06 02:47:21;;;;;;;1.83;0.60;;;14.00;99.90;;;;;;5076982;28;20484;-82
2022/10/06 02:49:49;;;;;;;0.90;0.60;;;14.00;99.90;;;;;;5077543;28;20528;-83
2022/10/06 02:52:16;;;;;;;2.87;0.73;;;14.00;99.90;;;;;;5076956;28;20832;-83
2022/10/06 02:54:42;;;;;;;0.70;0.60;;;14.00;99.90;;;;;;5076830;28;20462;-83
2022/10/06 02:57:09;;;;;;;1.07;0.60;;;13.90;99.90;;;;;;5076830;28;20455;-83
2022/10/06 02:59:36;;;;;;;1.00;0.80;;;13.90;99.90;;;;;;5076517;28;20936;-83
2022/10/06 03:02:03;;;;;;;2.40;0.67;;;13.90;99.90;;;;;;5076763;28;20492;-83
2022/10/06 03:04:29;;;;;;;0.67;0.43;;;13.80;99.90;;;;;;5076260;28;20482;-82
2022/10/06 03:06:58;;;;;;;0.70;0.50;;;13.80;99.90;;;;;;5076586;28;20571;-83
2022/10/06 03:09:25;;;;;;;0.40;0.40;;;13.80;99.90;;;;;;5076607;28;20445;-82
2022/10/06 03:11:51;;;;;;;0.67;0.67;;;13.80;99.90;;;;;;5076552;28;20496;-83
2022/10/06 03:14:18;;;;;;;0.93;0.60;;;13.70;99.90;;;;;;5076432;28;20469;-83
2022/10/06 03:16:45;;;;;;;3.13;0.70;;;13.70;99.90;;;;;;5076458;28;20445;-82
2022/10/06 03:19:12;;;;;;;0.40;0.30;;;13.70;99.90;;;;;;5076442;28;20825;-82
2022/10/06 03:21:41;;;;;;;1.10;0.80;;;13.70;99.90;;;;;;5076359;28;20456;-82
2022/10/06 03:24:09;;;;;;;0.43;0.40;;;13.70;99.90;;;;;;5075954;28;20473;-83
2022/10/06 03:26:38;;;;;;;0.60;0.60;;;13.70;99.90;;;;;;5076234;28;20473;-83
2022/10/06 03:29:05;;;;;;;0.60;0.60;;;13.70;99.90;;;;;;5075942;28;20963;-83
2022/10/06 03:31:32;;;;;;;0.50;0.50;;;13.60;99.90;;;;;;5075872;28;20816;-83
2022/10/06 03:33:59;;;;;;;0.70;0.70;;;13.60;99.90;;;;;;5076118;28;20465;-82
2022/10/06 03:36:28;;;;;;;0.70;0.67;;;13.60;99.90;;;;;;5075801;28;20824;-83
2022/10/06 03:38:55;;;;;;;0.50;0.40;;;13.60;99.90;;;;;;5076068;28;20829;-83
2022/10/06 03:41:25;;;;;;;0.50;0.50;;;13.60;99.90;;;;;;5076030;28;20444;-82
2022/10/06 03:43:53;;;;;;;1.33;0.70;;;13.60;99.90;;;;;;5075930;28;20474;-83
2022/10/06 03:46:21;;;;;;;0.60;0.60;;;13.50;99.90;;;;;;5075521;28;20477;-83
2022/10/06 03:48:49;;;;;;;0.60;0.60;;;13.50;99.90;;;;;;5074760;28;20445;-82
2022/10/06 03:51:18;;;;;;;0.83;0.67;;;13.50;99.90;;;;;;5075833;28;20453;-83
2022/10/06 03:53:46;;;;;;;2.40;0.70;;;13.40;99.90;;;;;;5075719;28;20465;-83
2022/10/06 03:56:15;;;;;;;0.93;0.93;;;13.40;99.90;;;;;;5075784;28;20449;-83
2022/10/06 03:58:45;;;;;;;0.60;0.53;;;13.30;99.90;;;;;;5075354;28;20449;-83
2022/10/06 04:01:15;;;;;;;0.73;0.73;;;13.30;99.90;;;;;;5075582;28;20434;-83
2022/10/06 04:03:42;;;;;;;0.50;0.50;;;13.20;99.90;;;;;;5075175;28;20488;-82
2022/10/06 04:06:13;;;;;;;7.47;1.03;;;13.20;99.90;;;;;;5075491;28;20835;-83
2022/10/06 04:08:41;;;;;;;0.70;0.70;;;13.10;99.90;;;;;;5075582;28;20457;-83
2022/10/06 04:11:10;;;;;;;0.97;0.53;;;13.10;99.90;;;;;;5075487;28;20506;-83
2022/10/06 04:13:37;;;;;;;0.60;0.57;;;13.00;99.90;;;;;;5075382;28;20441;-83
2022/10/06 04:16:13;;;;;;;0.40;0.40;;;13.00;99.90;;;;;;5075397;28;20455;-82
2022/10/06 04:18:40;;;;;;;1.37;0.70;;;13.00;99.90;;;;;;5075125;28;20995;-83
2022/10/06 04:21:08;;;;;;;0.53;0.53;;;13.00;99.90;;;;;;5075300;28;20441;-82
2022/10/06 04:23:35;;;;;;;1.07;0.63;;;12.90;99.90;;;;;;5075209;28;20458;-82
2022/10/06 04:26:05;;;;;;;1.40;0.77;;;12.90;99.90;;;;;;5075087;28;20531;-82
2022/10/06 04:28:32;;;;;;;0.80;0.70;;;12.90;99.90;;;;;;5075200;28;20564;-82
2022/10/06 04:30:59;;;;;;;0.53;0.53;;;12.90;99.90;;;;;;5075109;28;20446;-82
2022/10/06 04:33:28;;;;;;;0.50;0.50;;;12.80;99.90;;;;;;5074990;28;20449;-82
2022/10/06 04:35:58;;;;;;;0.40;0.40;;;12.80;99.90;;;;;;5074966;28;20454;-82
2022/10/06 04:38:26;;;;;;;1.40;0.40;;;12.80;99.90;;;;;;5074977;28;20449;-82
2022/10/06 04:40:53;;;;;;;1.53;0.60;;;12.80;99.90;;;;;;5074890;28;20445;-81
2022/10/06 04:43:20;;;;;;;0.50;0.50;;;12.80;99.90;;;;;;5074555;28;20945;-81
2022/10/06 04:45:47;;;;;;;0.50;0.50;;;12.80;99.90;;;;;;5074948;28;20466;-82
2022/10/06 04:48:14;;;;;;;0.50;0.43;;;12.80;99.90;;;;;;5074730;28;20457;-82
2022/10/06 04:50:42;;;;;;;0.70;0.60;;;12.80;99.90;;;;;;5075541;28;20449;-82
2022/10/06 04:53:08;;;;;;;0.87;0.50;;;12.80;99.90;;;;;;5074650;28;20449;-82
2022/10/06 04:55:35;;;;;;;0.70;0.70;;;12.80;99.90;;;;;;5074344;28;20981;-81
2022/10/06 04:58:02;;;;;;;1.70;0.53;;;12.80;99.90;;;;;;5074251;28;20445;-82
2022/10/06 05:00:28;;;;;;;1.43;0.73;;;12.80;99.90;;;;;;5074478;28;20457;-82
2022/10/06 05:02:55;;;;;;;0.50;0.50;;;12.70;99.90;;;;;;5074233;28;20452;-82
2022/10/06 05:05:22;;;;;;;1.07;0.80;;;12.70;99.90;;;;;;5075196;28;20818;-82
2022/10/06 05:07:50;;;;;;;0.97;0.60;;;12.70;99.90;;;;;;5074552;28;20474;-82
2022/10/06 05:10:17;;;;;;;0.90;0.70;;;12.70;99.90;;;;;;5074309;28;20809;-81
2022/10/06 05:12:44;;;;;;;0.77;0.60;;;12.70;99.90;;;;;;5074254;28;20794;-82
2022/10/06 05:15:11;;;;;;;0.60;0.50;;;12.70;99.90;;;;;;5073805;28;21007;-82
2022/10/06 05:17:37;;;;;;;0.40;0.40;;;12.80;99.90;;;;;;5074152;28;20442;-82
2022/10/06 05:20:05;;;;;;;0.80;0.80;;;12.80;99.90;;;;;;5074111;28;20821;-82
2022/10/06 05:22:31;;;;;;;4.90;0.60;;;12.90;99.90;;;;;;5074068;28;20620;-82
2022/10/06 05:24:59;;;;;;;8.80;0.63;;;13.00;99.90;;;;;;5073961;28;20465;-81
2022/10/06 05:27:26;;;;;;;0.53;0.53;;;13.00;99.90;;;;;;5073928;28;20504;-82
2022/10/06 05:29:53;;;;;;;0.63;0.60;;;13.00;99.90;;;;;;5073901;28;20449;-82
2022/10/06 05:32:19;;;;;;;0.50;0.50;;;13.10;99.90;;;;;;5073609;28;20976;-82
2022/10/06 05:34:46;;;;;;;0.70;0.70;;;13.10;99.90;;;;;;5073786;28;20469;-82
2022/10/06 05:37:13;;;;;;;0.73;0.60;;;13.20;99.90;;;;;;5073816;28;20438;-82
2022/10/06 05:39:40;;;;;;;0.90;0.90;;;13.20;99.90;;;;;;5073725;28;20964;-82
2022/10/06 05:42:08;;;;;;;0.63;0.60;;;13.30;99.90;;;;;;5073774;28;20452;-82
2022/10/06 05:44:34;;;;;;;2.00;0.80;;;13.30;99.90;;;;;;5073644;28;20821;-82
2022/10/06 05:47:01;;;;;;;0.40;0.40;;;13.30;99.90;;;;;;5073577;28;20481;-82
2022/10/06 05:49:28;;;;;;;1.33;0.60;;;13.30;99.90;;;;;;5073346;28;20819;-82
2022/10/06 05:51:54;;;;;;;0.60;0.60;;;13.30;99.90;;;;;;5073614;28;20449;-82
2022/10/06 05:54:21;;;;;;;0.70;0.60;;;13.30;99.90;;;;;;5073240;28;20980;-82
2022/10/06 05:56:48;;;;;;;0.87;0.60;;;13.40;99.90;;;;;;5073545;28;20441;-82
2022/10/06 05:59:16;;;;;;;2.00;0.50;;;13.40;99.90;;;;;;5073505;28;20456;-82
2022/10/06 06:01:43;;;;;;;0.67;0.67;;;13.40;99.90;;;;;;5073450;28;20448;-82
2022/10/06 06:04:12;;;;;;;2.40;0.50;;;13.40;99.90;;;;;;5073057;28;20488;-82
2022/10/06 06:06:40;;;;;;;1.40;0.80;;;13.40;99.90;;;;;;5073379;28;20481;-82
2022/10/06 06:09:08;;;;;;;1.13;0.63;;;13.40;99.90;;;;;;5073445;28;20441;-82
2022/10/06 06:11:36;;;;;;;3.80;0.83;;;13.40;99.90;;;;;;5072835;28;20945;-81
2022/10/06 06:14:05;;;;;;;1.93;1.53;;;13.50;99.90;;;;;;5073216;28;20473;-81
2022/10/06 06:16:33;;;;;;;3.13;1.00;;;13.50;99.90;;;;;;5073315;28;20460;-82
2022/10/06 06:19:00;;;;;;;0.83;0.83;;;13.50;99.90;;;;;;5073342;28;20486;-82
2022/10/06 06:21:28;;;;;;;0.73;0.73;;;13.50;99.90;;;;;;5073293;28;20445;-81
2022/10/06 06:23:55;;;;;;;1.10;0.93;;;13.60;99.90;;;;;;5073197;28;20487;-82
2022/10/06 06:26:23;;;;;;;0.80;0.80;;;13.60;99.90;;;;;;5073342;28;20445;-82
2022/10/06 06:28:51;;;;;;;1.40;0.67;;;13.60;99.90;;;;;;5073238;28;20441;-83
2022/10/06 06:31:20;;;;;;;3.43;2.10;;;13.70;99.90;;;;;;5072900;28;20842;-82
2022/10/06 06:33:50;;;;;;;0.70;0.70;;;13.80;99.90;;;;;;5073178;28;20882;-83
2022/10/06 06:36:19;;;;;;;1.00;0.83;;;13.80;99.90;;;;;;5073376;28;20434;-86
2022/10/06 06:38:48;;;;;;;1.37;0.90;;;13.90;99.90;;;;;;5073089;28;20906;-78
2022/10/06 06:41:16;;;;;;;0.83;0.77;;;14.00;99.90;;;;;;5072809;28;20473;-79
2022/10/06 06:43:44;;;;;;;1.50;0.80;;;14.10;99.90;;;;;;5073154;28;20461;-85
2022/10/06 06:46:10;;;;;;;1.10;0.83;;;14.10;99.90;;;;;;5073277;28;20873;-87
2022/10/06 06:48:37;;;;;;;3.60;2.33;;;14.20;99.90;;;;;;5073253;28;21066;-83
2022/10/06 06:51:06;;;;;;;0.90;0.90;;;14.30;99.90;;;;;;5072721;28;20862;-77
2022/10/06 06:53:33;;;;;;;1.63;0.80;;;14.30;99.90;;;;;;5072614;28;20456;-82
2022/10/06 06:56:00;;;;;;;4.77;0.80;;;14.40;99.90;;;;;;5072968;28;20450;-82
2022/10/06 06:58:27;;;;;;;0.50;0.50;;;14.40;99.90;;;;;;5072635;28;20936;-83
2022/10/06 07:00:54;;;;;;;4.63;0.50;;;14.50;99.90;;;;;;5072596;28;20454;-83
2022/10/06 07:03:21;;;;;;;1.30;0.60;;;14.60;99.90;;;;;;5072636;28;20560;-77
2022/10/06 07:05:48;;;;;;;4.53;0.60;;;14.60;99.90;;;;;;5072959;28;20453;-77
2022/10/06 07:08:19;;;;;;;0.40;0.37;;;14.70;99.90;;;;;;5072831;28;20477;-76
2022/10/06 07:10:47;;;;;;;0.60;0.60;;;14.70;99.90;;;;;;5072590;28;20538;-76
2022/10/06 07:13:16;;;;;;;0.83;0.50;;;14.80;99.90;;;;;;5072514;28;20967;-78
2022/10/06 07:26:47;;;;;;;0.70;0.70;;;15.10;99.90;;;;;;5076338;28;20571;-79
2022/10/06 07:29:14;;;;;;;0.70;0.70;;;15.10;99.90;;;;;;5076007;28;20933;-79
2022/10/06 07:31:42;;;;;;;4.43;0.70;;;15.20;99.90;;;;;;5076281;28;20794;-86
2022/10/06 07:34:09;;;;;;;1.03;0.60;;;15.20;99.90;;;;;;5076299;28;20472;-86
2022/10/06 07:36:35;;;;;;;0.87;0.67;;;15.20;99.90;;;;;;5076371;28;20852;-86
2022/10/06 07:39:04;;;;;;;0.77;0.60;;;15.20;99.90;;;;;;5076191;28;20449;-77
2022/10/06 07:41:31;;;;;;;0.90;0.50;;;15.20;99.90;;;;;;5076117;28;20449;-86
2022/10/06 07:43:58;;;;;;;0.70;0.60;;;15.20;99.90;;;;;;5075889;28;21039;-79
2022/10/06 07:46:25;;;;;;;0.60;0.50;;;15.20;99.90;;;;;;5075682;28;20829;-76
2022/10/06 07:48:51;;;;;;;0.70;0.70;;;15.20;99.90;;;;;;5075828;28;20511;-77
2022/10/06 07:51:19;;;;;;;0.50;0.50;;;15.20;99.90;;;;;;5075555;28;20446;-76
2022/10/06 07:53:49;;;;;;;0.90;0.63;;;15.20;99.90;;;;;;5075554;28;20480;-79
2022/10/06 07:56:19;;;;;;;1.07;0.60;;;15.20;99.90;;;;;;5075804;28;20453;-76
2022/10/06 07:58:46;;;;;;;0.60;0.60;;;15.20;99.90;;;;;;5075778;28;20525;-81
2022/10/06 08:01:14;;;;;;;1.67;0.80;;;15.20;99.90;;;;;;5075768;28;20450;-77
2022/10/06 08:03:42;;;;;;;0.70;0.60;;;15.20;99.90;;;;;;5075407;28;20477;-83
2022/10/06 08:06:11;;;;;;;0.50;0.50;;;15.20;99.90;;;;;;5075695;28;20457;-79
2022/10/06 08:08:38;;;;;;;1.03;0.50;;;15.30;99.90;;;;;;5075592;28;20524;-86
2022/10/06 08:11:07;;;;;;;0.53;0.50;;;15.40;99.90;;;;;;5076789;28;20461;-86
2022/10/06 08:13:37;;;;;;;0.50;0.50;;;15.40;99.90;;;;;;5075402;28;20442;-79
2022/10/06 08:16:05;;;;;;;1.47;0.50;;;15.40;99.90;;;;;;5075527;28;20795;-77
2022/10/06 08:18:32;;;;;;;3.30;0.83;;;15.40;99.90;;;;;;5075441;28;20442;-83
2022/10/06 08:20:59;;;;;;;1.10;0.50;;;15.50;99.90;;;;;;5075459;28;20434;-83
2022/10/06 08:23:26;;;;;;;0.73;0.50;;;15.50;99.90;;;;;;5075243;28;20430;-77
2022/10/06 08:25:55;;;;;;;0.50;0.50;;;15.50;99.90;;;;;;5075221;28;20456;-83
2022/10/06 08:28:23;;;;;;;0.50;0.50;;;15.60;99.90;;;;;;5075135;28;20558;-76
2022/10/06 08:30:51;;;;;;;0.40;0.40;;;15.70;99.90;;;;;;5075208;28;20829;-86
2022/10/06 08:33:18;;;;;;;0.40;0.40;;;15.70;99.90;;;;;;5075090;28;20991;-86
2022/10/06 08:35:45;;;;;;;1.57;0.40;;;15.80;99.90;;;;;;5074861;28;20466;-86
2022/10/06 08:38:13;;;;;;;2.03;0.50;;;15.80;99.90;;;;;;5074883;28;20479;-87
2022/10/06 08:40:41;;;;;;;0.43;0.43;;;15.90;99.90;;;;;;5075062;28;20461;-77
2022/10/06 08:43:16;;;;;;;0.57;0.40;;;15.90;99.90;;;;;;5074945;28;20460;-83
2022/10/06 08:45:45;;;;;;;0.50;0.40;;;15.90;99.90;;;;;;5074820;28;20830;-83
2022/10/06 08:48:17;;;;;;;0.50;0.40;;;15.90;99.90;;;;;;5074406;28;20849;-83
2022/10/06 08:50:52;;;;;;;0.50;0.50;;;16.00;99.90;;;;;;5074790;28;20433;-83
2022/10/06 08:53:29;;;;;;;0.60;0.40;;;15.90;99.90;;;;;;5075034;28;20418;-77
2022/10/06 08:56:04;;;;;;;0.70;0.67;;;16.00;99.90;;;;;;5074363;28;20422;-79
2022/10/06 08:58:49;;;;;;;0.40;0.40;;;16.10;99.90;;;;;;5074692;28;20429;-83
2022/10/06 09:01:18;;;;;;;0.40;0.40;;;16.20;99.90;;;;;;5074257;28;20905;-83
2022/10/06 09:03:50;;;;;;;0.70;0.40;;;16.30;99.90;;;;;;5073922;28;20980;-83
2022/10/06 09:06:30;;;;;;;1.80;0.40;;;16.40;99.90;;;;;;5074192;28;20978;-77
2022/10/06 09:09:02;;;;;;;3.23;0.40;;;16.40;99.90;;;;;;5074320;28;20465;-83
2022/10/06 09:11:44;;;;;;;0.40;0.40;;;16.40;99.90;;;;;;5074381;28;20430;-79
2022/10/06 09:14:15;;;;;;;0.40;0.40;;;16.40;99.90;;;;;;5074387;28;20488;-86
2022/10/06 09:16:46;;;;;;;0.50;0.40;;;16.40;99.90;;;;;;5074405;28;20519;-83
2022/10/06 09:19:19;;;;;;;1.20;0.97;;;16.50;99.90;;;;;;5074379;28;20434;-86
2022/10/06 09:21:49;;;;;;;0.40;0.30;;;16.50;99.90;;;;;;5074786;28;20787;-77
2022/10/06 09:24:18;;;;;;;0.77;0.77;;;16.50;99.90;;;;;;5074056;28;20466;-83
2022/10/06 09:26:49;;;;;;;0.50;0.50;;;16.60;99.90;;;;;;5074092;28;20441;-77
2022/10/06 09:29:16;;;;;;;0.40;0.40;;;16.60;99.90;;;;;;5074752;28;20465;-83
2022/10/06 09:31:49;;;;;;;0.53;0.40;;;16.70;99.90;;;;;;5074352;28;20472;-81
2022/10/06 09:34:24;;;;;;;0.40;0.33;;;16.80;99.90;;;;;;5073958;28;20481;-82
2022/10/06 09:37:02;;;;;;;0.40;0.30;;;16.80;99.90;;;;;;5073915;28;20434;-77
2022/10/06 09:39:35;;;;;;;2.40;0.50;;;16.80;99.90;;;;;;5073877;28;20445;-76
2022/10/06 09:42:05;;;;;;;2.40;0.60;;;16.80;99.90;;;;;;5073842;28;20444;-82
2022/10/06 09:44:43;;;;;;;0.50;0.30;;;16.90;99.90;;;;;;5073690;28;20564;-82
2022/10/06 09:47:30;;;;;;;0.50;0.30;;;16.90;99.90;;;;;;5073139;28;20520;-82
2022/10/06 09:50:11;;;;;;;1.30;0.40;;;16.90;99.90;;;;;;5073721;28;20843;-77
2022/10/06 09:52:38;;;;;;;0.73;0.30;;;16.90;99.90;;;;;;5073861;28;20429;-83
2022/10/06 09:55:11;;;;;;;0.43;0.40;;;16.90;99.90;;;;;;5073574;28;20473;-82
2022/10/06 09:57:39;;;;;;;0.50;0.40;;;16.90;99.90;;;;;;5073779;28;20458;-87
2022/10/06 10:00:26;;;;;;;0.40;0.30;;;16.80;99.90;;;;;;5073900;28;20446;-80
2022/10/06 10:02:58;;;;;;;0.40;0.30;;;16.90;99.90;;;;;;5073067;28;20927;-87
2022/10/06 10:05:29;;;;;;;0.73;0.40;;;17.00;99.90;;;;;;5073673;28;20458;-79
2022/10/06 10:08:05;;;;;;;0.40;0.37;;;17.10;99.90;;;;;;5073535;28;20465;-77
2022/10/06 10:10:35;;;;;;;0.60;0.40;;;17.20;99.90;;;;;;5073464;28;20465;-77
2022/10/06 10:13:02;;;;;;;1.00;0.50;;;17.50;99.90;;;;;;5073345;28;20922;-87
2022/10/06 10:15:32;;;;;;;0.60;0.40;;;17.80;99.90;;;;;;5073637;28;20468;-77
2022/10/06 10:18:02;;;;;;;0.40;0.30;;;18.30;99.90;;;;;;5073162;28;21018;-87
2022/10/06 10:20:35;;;;;;;0.90;0.60;;;18.60;99.90;;;;;;5073969;28;20429;-82
2022/10/06 10:23:06;;;;;;;0.50;0.50;;;18.90;99.90;;;;;;5073387;28;20469;-83
2022/10/06 10:25:45;;;;;;;0.50;0.50;;;19.30;99.90;;;;;;5073316;28;20823;-80
2022/10/06 10:28:34;;;;;;;2.00;0.83;;;19.70;99.90;;;;;;5073184;28;20830;-81
2022/10/06 10:31:09;;;;;;;0.40;0.40;;;20.20;99.90;;;;;;5070577;28;20468;-80
2022/10/06 10:33:42;;;;;;;0.60;0.50;;;20.70;99.90;;;;;;5073151;28;20429;-79
2022/10/06 10:36:14;;;;;;;1.43;0.43;;;21.30;99.90;;;;;;5073810;28;20540;-77
2022/10/06 10:38:43;;;;;;;0.50;0.50;;;21.90;99.90;;;;;;5072934;28;20913;-77
2022/10/06 10:41:18;;;;;;;0.50;0.40;;;22.20;99.90;;;;;;5073161;28;20445;-77
2022/10/06 10:43:49;;;;;;;1.80;0.50;;;21.90;99.90;;;;;;5073118;28;20479;-83
2022/10/06 10:46:22;;;;;;;0.40;0.33;;;21.30;99.90;;;;;;5073144;28;20429;-79
2022/10/06 10:48:54;;;;;;;0.50;0.50;;;20.80;99.90;;;;;;5073042;28;20473;-79
2022/10/06 10:51:28;;;;;;;3.20;1.27;;;20.20;99.90;;;;;;5073225;28;20429;-84
2022/10/06 10:54:00;;;;;;;0.30;0.30;;;19.70;99.90;;;;;;5073014;28;20464;-82
2022/10/06 10:56:31;;;;;;;1.23;0.70;;;19.40;99.90;;;;;;5073034;28;20434;-83
2022/10/06 10:59:06;;;;;;;0.53;0.40;;;19.20;99.90;;;;;;5075003;28;20452;-77
2022/10/06 11:01:38;;;;;;;1.03;0.40;;;19.10;99.90;;;;;;5076910;28;20925;-79
2022/10/06 11:04:10;;;;;;;0.53;0.40;;;19.00;99.90;;;;;;5076369;28;20488;-80
2022/10/06 11:07:04;;;;;;;1.23;0.40;;;18.80;99.90;;;;;;5076423;28;20796;-80
2022/10/06 11:09:39;;;;;;;0.40;0.40;;;18.60;99.90;;;;;;5073641;28;20495;-80
2022/10/06 11:12:17;;;;;;;0.90;0.30;;;18.50;99.90;;;;;;5076583;28;20433;-80
2022/10/06 11:14:56;;;;;;;0.50;0.43;;;18.30;99.90;;;;;;5076472;28;20527;-80
2022/10/06 11:17:43;;;;;;;4.53;0.60;;;18.30;99.90;;;;;;5076519;28;20495;-79
2022/10/06 11:20:25;;;;;;;2.20;0.40;;;18.30;99.90;;;;;;5076489;28;20457;-80
2022/10/06 11:23:00;;;;;;;0.40;0.40;;;18.20;99.90;;;;;;5076425;28;20425;-80
2022/10/06 11:25:35;;;;;;;0.67;0.50;;;18.10;99.90;;;;;;5076293;28;20468;-80
2022/10/06 11:28:10;;;;;;;0.90;0.30;;;18.00;99.90;;;;;;5076318;28;20478;-80
2022/10/06 11:30:55;;;;;;;0.50;0.50;;;17.90;99.90;;;;;;5076235;28;20532;-80
2022/10/06 11:33:29;;;;;;;0.60;0.50;;;17.90;99.90;;;;;;5076295;28;20436;-80
2022/10/06 11:35:56;;;;;;;0.40;0.40;;;17.90;99.90;;;;;;5075973;28;20440;-80
2022/10/06 11:38:30;;;;;;;3.23;0.43;;;17.90;99.90;;;;;;5075843;28;20972;-80
2022/10/06 11:41:08;;;;;;;0.80;0.80;;;18.00;99.90;;;;;;5076139;28;20437;-79
2022/10/06 11:43:40;;;;;;;0.40;0.33;;;18.10;99.90;;;;;;5076042;28;20465;-77
2022/10/06 11:46:16;;;;;;;0.40;0.40;;;18.30;99.90;;;;;;5075764;28;20932;-77
2022/10/06 11:48:43;;;;;;;0.30;0.30;;;18.40;99.90;;;;;;5076050;28;20540;-77
2022/10/06 11:51:29;;;;;;;0.40;0.40;;;18.50;99.90;;;;;;5076523;28;20472;-83
2022/10/06 11:53:59;;;;;;;0.47;0.40;;;18.60;99.90;;;;;;5076167;28;20501;-80
2022/10/06 11:56:44;;;;;;;0.60;0.40;;;18.60;99.90;;;;;;5075580;28;21014;-77
2022/10/06 11:59:30;;;;;;;0.83;0.43;;;18.60;99.90;;;;;;5075868;28;20533;-77
2022/10/06 12:01:59;;;;;;;0.60;0.60;;;18.40;99.90;;;;;;5075851;28;20524;-86
2022/10/06 12:04:26;;;;;;;1.43;0.40;;;18.40;99.90;;;;;;5075247;28;20559;-77
2022/10/06 12:06:58;;;;;;;0.53;0.53;;;18.30;99.90;;;;;;5075851;28;20456;-87
2022/10/06 12:09:46;;;;;;;0.40;0.40;;;18.30;99.90;;;;;;5075045;28;20539;-79
2022/10/06 12:12:40;;;;;;;0.50;0.40;;;18.20;99.90;;;;;;5064541;28;20449;-79
2022/10/06 12:15:32;;;;;;;0.50;0.40;;;18.10;99.90;;;;;;5075136;28;20464;-79
2022/10/06 12:18:04;;;;;;;3.23;0.50;;;18.00;99.90;;;;;;5044692;28;20449;-79
2022/10/06 12:20:41;;;;;;;0.70;0.40;;;18.00;99.90;;;;;;5075437;28;20430;-79
2022/10/06 12:23:18;;;;;;;0.50;0.37;;;17.90;99.90;;;;;;5075349;28;20504;-79
2022/10/06 12:25:53;;;;;;;0.57;0.40;;;17.90;99.90;;;;;;5075277;28;20841;-79
2022/10/06 12:28:31;;;;;;;1.40;0.37;;;17.90;99.90;;;;;;5074942;28;20909;-82
2022/10/06 12:31:18;;;;;;;0.60;0.40;;;17.80;99.90;;;;;;5075416;28;20437;-87
2022/10/06 12:33:45;;;;;;;0.50;0.50;;;17.80;99.90;;;;;;5075282;28;20999;-82
2022/10/06 12:36:17;;;;;;;0.40;0.40;;;17.90;99.90;;;;;;5075155;28;20458;-87
2022/10/06 12:39:03;;;;;;;0.47;0.30;;;17.80;99.90;;;;;;5075074;28;20422;-77
2022/10/06 12:42:00;;;;;;;1.60;0.40;;;17.90;99.90;;;;;;5075045;28;20492;-82
2022/10/06 12:44:31;;;;;;;2.53;0.50;;;18.00;99.90;;;;;;5074507;28;20493;-82
2022/10/06 12:47:02;;;;;;;0.30;0.30;;;18.10;99.90;;;;;;5074892;28;20441;-82
2022/10/06 12:49:45;;;;;;;0.40;0.40;;;18.10;99.90;;;;;;5074748;28;20508;-82
2022/10/06 12:52:34;;;;;;;1.17;0.40;;;18.20;99.90;;;;;;5074805;28;20445;-79
2022/10/06 12:55:14;;;;;;;0.40;0.40;;;18.10;99.90;;;;;;5074619;28;20488;-82
2022/10/06 12:57:52;;;;;;;0.67;0.40;;;18.10;99.90;;;;;;5074736;28;20430;-79
2022/10/06 13:00:23;;;;;;;1.90;0.50;;;18.10;99.90;;;;;;5074593;28;20438;-79
2022/10/06 13:02:54;;;;;;;0.40;0.40;;;18.20;99.90;;;;;;5074601;28;20446;-82
2022/10/06 13:05:20;;;;;;;1.13;0.50;;;18.20;99.90;;;;;;5074152;28;20499;-82
2022/10/06 13:07:58;;;;;;;0.43;0.40;;;18.20;99.90;;;;;;5074456;28;20458;-78
2022/10/06 13:10:28;;;;;;;0.40;0.37;;;18.10;99.90;;;;;;5074013;28;21008;-77
2022/10/06 13:12:56;;;;;;;1.33;1.33;;;18.20;99.90;;;;;;5074412;28;20456;-82
2022/10/06 13:15:27;;;;;;;0.50;0.43;;;18.10;99.90;;;;;;5074231;28;20860;-77